R. Catalunya — EALC — position and weather

sailwx.info

Track history (hours):
 
Tides and Currents Weather Stations Pressure Air Temp Water Temp Dewpoint Dewpoint Depression Visibility Wind Speed Wind Dir Waves Ship Positions

R. Catalunya

Last reported at 2017-Sep-04 04:34 UTC. Time now 2017-Sep-19 20:51 UTC.
Position N 41°17' E 002°12'.
Warning: this ship's position is 15 days out of date.

Length 26 m; draft 6.5 m.

Type: Tug. MMSI: 224149970.

Date/timePositionNaut miles runAvg speedWind from/ knotsBaromVisibWave heightAir tempDewpointWater temp
2017-Sep-04 04:34N 41°17' E 002°12'110.3
2017-Sep-04 04:26N 41°16' E 002°12'510.6
2017-Sep-04 04:00N 41°11' E 002°10'510.5
2017-Sep-04 03:30N 41°06' E 002°08'510.3
2017-Sep-04 03:00N 41°01' E 002°06'510.4
2017-Sep-04 02:30N 40°56' E 002°04'510.2
2017-Sep-04 02:00N 40°51' E 002°02'510.3
2017-Sep-04 01:30N 40°47' E 001°60'510.3
2017-Sep-04 01:00N 40°42' E 001°57'510.3
2017-Sep-04 00:30N 40°37' E 001°55'510.3
2017-Sep-04 00:00N 40°32' E 001°53'510.2
2017-Sep-03 23:30N 40°27' E 001°51'510.3
2017-Sep-03 23:00N 40°22' E 001°49'510.4
2017-Sep-03 22:30N 40°17' E 001°47'510.4
2017-Sep-03 22:00N 40°12' E 001°45'510.3
2017-Sep-03 21:30N 40°07' E 001°43'510.3
2017-Sep-03 21:00N 40°02' E 001°41'510.4
2017-Sep-03 20:30N 39°58' E 001°39'510.3
2017-Sep-03 20:00N 39°53' E 001°37'510.1
2017-Sep-03 19:30N 39°48' E 001°35'51 4.2
2017-Sep-03 07:23N 38°60' E 001°13'6 7.5
2017-Sep-03 06:32N 38°53' E 001°13'3 7.5
2017-Sep-03 06:10N 38°51' E 001°15'  
2017-Aug-31 11:32N 38°47' E 001°26'0 9.6
2017-Aug-31 11:29N 38°48' E 001°26'5 9.7
2017-Aug-31 11:00N 38°52' E 001°26'2 4.2
2017-Aug-31 10:28N 38°55' E 001°26'0 0.0
2017-Aug-31 09:58N 38°55' E 001°26'0 0.0
2017-Aug-31 09:28N 38°55' E 001°26'0 0.0
2017-Aug-31 08:58N 38°55' E 001°26'0 0.0
2017-Aug-31 08:28N 38°55' E 001°26'0 0.0
2017-Aug-31 07:58N 38°55' E 001°26'0 0.0
2017-Aug-31 07:28N 38°55' E 001°26'0 0.0
2017-Aug-31 06:58N 38°55' E 001°26'0 0.0
2017-Aug-31 06:28N 38°55' E 001°26'0 0.0
2017-Aug-31 05:58N 38°55' E 001°26'0 0.0
2017-Aug-31 05:28N 38°55' E 001°26'0 0.0
2017-Aug-31 04:58N 38°55' E 001°26'0 0.0
2017-Aug-31 04:28N 38°55' E 001°26'0 0.0
2017-Aug-31 03:58N 38°55' E 001°26'0 0.0
2017-Aug-31 03:28N 38°55' E 001°26'0 0.0
2017-Aug-31 02:58N 38°55' E 001°26'0 0.0
2017-Aug-31 02:28N 38°55' E 001°26'0 0.0
2017-Aug-31 01:58N 38°55' E 001°26'0 0.0
2017-Aug-31 01:28N 38°55' E 001°26'0 0.0
2017-Aug-31 00:58N 38°55' E 001°26'0 0.0
2017-Aug-31 00:28N 38°55' E 001°26'0 0.0
2017-Aug-30 23:58N 38°55' E 001°26'0 0.0
2017-Aug-30 23:28N 38°55' E 001°26'0 0.0
2017-Aug-30 22:58N 38°55' E 001°26'0 0.0
2017-Aug-30 22:28N 38°55' E 001°26'0 0.0
2017-Aug-30 21:58N 38°55' E 001°26'0 0.0
2017-Aug-30 21:28N 38°55' E 001°26'0 0.0
2017-Aug-30 20:31N 38°55' E 001°26'0 0.0
2017-Aug-30 20:28N 38°55' E 001°26'0 0.0
2017-Aug-30 19:58N 38°55' E 001°26'0 0.0
2017-Aug-30 19:28N 38°55' E 001°26'0 0.0
2017-Aug-30 18:58N 38°55' E 001°26'0 0.0
2017-Aug-30 18:22N 38°55' E 001°26'0 0.0
2017-Aug-30 17:58N 38°55' E 001°26'0 0.0
2017-Aug-30 17:28N 38°55' E 001°26'0 0.0
2017-Aug-30 16:58N 38°55' E 001°26'0 0.0
2017-Aug-30 16:22N 38°55' E 001°26'0 0.0
2017-Aug-30 15:58N 38°55' E 001°26'0 0.0
2017-Aug-30 15:28N 38°55' E 001°26'0 0.0
2017-Aug-30 14:58N 38°55' E 001°26'0 0.0
2017-Aug-30 14:28N 38°55' E 001°26'0 0.0
2017-Aug-30 13:58N 38°55' E 001°26'0 0.0
2017-Aug-30 13:28N 38°55' E 001°26'0 0.0
2017-Aug-30 12:58N 38°55' E 001°26'0 0.0
2017-Aug-30 12:28N 38°55' E 001°26'0 0.0
2017-Aug-30 11:58N 38°55' E 001°26'0 0.2
2017-Aug-30 11:29N 38°55' E 001°26'6 6.1
2017-Aug-30 10:26N 38°50' E 001°21'2 0.0
2017-Aug-28 14:57N 38°51' E 001°19'3 8.0
2017-Aug-28 14:31N 38°49' E 001°22'3 0.7
2017-Aug-28 09:51N 38°47' E 001°26'0 0.0
2017-Aug-28 09:27N 38°47' E 001°26'0 0.1
2017-Aug-28 08:17N 38°47' E 001°25'1 0.7
2017-Aug-28 07:16N 38°46' E 001°26'0 0.0
2017-Aug-28 06:46N 38°46' E 001°26'0 0.0
2017-Aug-28 06:22N 38°46' E 001°26'0 0.0
2017-Aug-28 05:10N 38°46' E 001°26'0 0.0
2017-Aug-27 20:52N 38°46' E 001°26'0 0.0
2017-Aug-27 20:10N 38°46' E 001°26'0 0.0
2017-Aug-27 19:04N 38°46' E 001°26'0 0.1
2017-Aug-27 18:58N 38°46' E 001°26'0 0.0
2017-Aug-27 18:28N 38°46' E 001°26'0 0.0
2017-Aug-27 17:58N 38°46' E 001°26'0 0.0
2017-Aug-27 17:30N 38°46' E 001°26'2 3.9
2017-Aug-27 17:00N 38°48' E 001°25'510.1
2017-Aug-27 16:30N 38°51' E 001°30'510.2
2017-Aug-27 16:00N 38°54' E 001°35'510.2
2017-Aug-27 15:30N 38°57' E 001°40'510.2
2017-Aug-27 15:00N 39°00' E 001°46'510.1
2017-Aug-27 14:30N 39°03' E 001°51'510.0
2017-Aug-27 14:00N 39°06' E 001°56'5 9.7
2017-Aug-27 13:30N 39°09' E 002°01'5 9.8
2017-Aug-27 13:01N 39°12' E 002°06'510.1
2017-Aug-27 12:30N 39°15' E 002°11'510.1
2017-Aug-27 12:00N 39°18' E 002°17'510.2
2017-Aug-27 11:30N 39°21' E 002°22'510.5
2017-Aug-27 11:00N 39°24' E 002°27'611.3
2017-Aug-27 10:30N 39°28' E 002°33'510.2
2017-Aug-27 10:00N 39°32' E 002°37'2 4.4
2017-Aug-27 09:31N 39°34' E 002°38'0 0.0
2017-Aug-27 08:59N 39°34' E 002°38'0 0.0
2017-Aug-27 08:29N 39°34' E 002°38'0 0.0
2017-Aug-27 07:59N 39°34' E 002°38'0 0.0
2017-Aug-27 07:29N 39°34' E 002°38'0 0.0
2017-Aug-27 06:59N 39°34' E 002°38'0 0.0
2017-Aug-27 06:29N 39°34' E 002°38'0 0.0
2017-Aug-27 05:59N 39°34' E 002°38'0 0.0
2017-Aug-27 05:29N 39°34' E 002°38'0 0.0
2017-Aug-27 04:59N 39°34' E 002°38'0 0.0
2017-Aug-27 04:29N 39°34' E 002°38'0 0.0
2017-Aug-27 03:59N 39°34' E 002°38'0 0.0
2017-Aug-27 03:29N 39°34' E 002°38'0 0.0
2017-Aug-27 02:59N 39°34' E 002°38'0 0.0
2017-Aug-27 02:29N 39°34' E 002°38'0 0.0
2017-Aug-27 01:56N 39°34' E 002°38'0 0.0
2017-Aug-27 01:29N 39°34' E 002°38'0 0.0
2017-Aug-27 00:59N 39°34' E 002°38'0 0.0
2017-Aug-27 00:29N 39°34' E 002°38'0 0.0
2017-Aug-26 23:59N 39°34' E 002°38'0 0.0
2017-Aug-26 23:29N 39°34' E 002°38'0 0.0
2017-Aug-26 22:59N 39°34' E 002°38'0 0.0
2017-Aug-26 22:29N 39°34' E 002°38'0 0.0
2017-Aug-26 21:59N 39°34' E 002°38'0 0.0
2017-Aug-26 21:29N 39°34' E 002°38'0 0.0
2017-Aug-26 20:59N 39°34' E 002°38'0 0.0
2017-Aug-26 20:29N 39°34' E 002°38'0 0.0
2017-Aug-26 19:59N 39°34' E 002°38'0 0.0
2017-Aug-26 19:29N 39°34' E 002°38'0 0.0
2017-Aug-26 18:59N 39°34' E 002°38'0 0.0
2017-Aug-26 18:29N 39°34' E 002°38'0 0.0
2017-Aug-26 17:59N 39°34' E 002°38'0 0.0
2017-Aug-26 17:26N 39°34' E 002°38'0 0.0
2017-Aug-26 16:56N 39°34' E 002°38'0 0.0
2017-Aug-26 16:29N 39°34' E 002°38'0 0.0
2017-Aug-26 15:59N 39°34' E 002°38'0 0.0
2017-Aug-26 15:29N 39°34' E 002°38'0 0.0
2017-Aug-26 14:59N 39°34' E 002°38'0 0.0
2017-Aug-26 13:59N 39°34' E 002°38'0 0.0
2017-Aug-26 13:29N 39°34' E 002°38'0 0.0
2017-Aug-26 12:59N 39°34' E 002°38'0 0.0
2017-Aug-26 12:29N 39°34' E 002°38'0 0.0
2017-Aug-26 11:56N 39°34' E 002°38'0 0.0
2017-Aug-26 11:29N 39°34' E 002°38'0 0.0
2017-Aug-26 10:59N 39°34' E 002°38'0 0.0
2017-Aug-26 10:29N 39°34' E 002°38'0 0.0
2017-Aug-26 09:56N 39°34' E 002°38'0 0.0
2017-Aug-26 09:29N 39°34' E 002°38'0 0.0
2017-Aug-26 08:59N 39°34' E 002°38'0 0.0
2017-Aug-26 08:29N 39°34' E 002°38'0 0.0
2017-Aug-26 07:59N 39°34' E 002°38'0 0.0
2017-Aug-26 07:29N 39°34' E 002°38'0 0.0
2017-Aug-26 06:59N 39°34' E 002°38'0 0.0
2017-Aug-26 06:29N 39°34' E 002°38'0 0.0
2017-Aug-26 05:56N 39°34' E 002°38'0 0.0
2017-Aug-26 05:29N 39°34' E 002°38'0 0.0
2017-Aug-26 04:59N 39°34' E 002°38'0 0.0
2017-Aug-26 04:29N 39°34' E 002°38'0 0.0
2017-Aug-26 03:59N 39°34' E 002°38'0 0.0
2017-Aug-26 03:29N 39°34' E 002°38'0 0.0
2017-Aug-26 02:59N 39°34' E 002°38'0 0.0
2017-Aug-26 02:29N 39°34' E 002°38'0 0.0
2017-Aug-26 01:59N 39°34' E 002°38'0 0.0
2017-Aug-26 01:29N 39°34' E 002°38'0 0.0
2017-Aug-26 00:59N 39°34' E 002°38'0 0.0
2017-Aug-26 00:29N 39°34' E 002°38'0 0.0
2017-Aug-25 23:59N 39°34' E 002°38'0 0.0
2017-Aug-25 23:29N 39°34' E 002°38'0 0.0
2017-Aug-25 22:59N 39°34' E 002°38'0 0.0
2017-Aug-25 22:29N 39°34' E 002°38'0 0.0
2017-Aug-25 21:59N 39°34' E 002°38'0 0.0
2017-Aug-25 21:29N 39°34' E 002°38'0 0.0
2017-Aug-25 20:59N 39°34' E 002°38'0 0.0
2017-Aug-25 20:29N 39°34' E 002°38'0 0.0
2017-Aug-25 19:59N 39°34' E 002°38'0 0.0
2017-Aug-25 19:29N 39°34' E 002°38'0 0.0
2017-Aug-25 18:59N 39°34' E 002°38'0 0.0
2017-Aug-25 18:30N 39°34' E 002°38'1 1.3
2017-Aug-25 18:01N 39°33' E 002°38'4 7.8
2017-Aug-25 17:30N 39°30' E 002°36'5 9.9
2017-Aug-25 17:00N 39°27' E 002°30'611.0
2017-Aug-25 16:30N 39°31' E 002°25'1 0.2
2017-Aug-25 09:18N 39°32' E 002°25'2 6.2
2017-Aug-25 09:00N 39°30' E 002°26'  
Track history (hours):
 
Tides and Currents Weather Stations Pressure Air Temp Water Temp Dewpoint Dewpoint Depression Visibility Wind Speed Wind Dir Waves Ship Positions

R. Catalunya

Last reported at 2017-Sep-04 04:34 UTC. Time now 2017-Sep-19 20:51 UTC.
Position N 41°17' E 002°12'.
Warning: this ship's position is 15 days out of date.

Length 26 m; draft 6.5 m.

Type: Tug. MMSI: 224149970.

Date/timePositionNaut miles runAvg speedWind from/ knotsBaromVisibWave heightAir tempDewpointWater temp
2017-Sep-04 04:34N 41°17' E 002°12'110.3
2017-Sep-04 04:26N 41°16' E 002°12'510.6
2017-Sep-04 04:00N 41°11' E 002°10'510.5
2017-Sep-04 03:30N 41°06' E 002°08'510.3
2017-Sep-04 03:00N 41°01' E 002°06'510.4
2017-Sep-04 02:30N 40°56' E 002°04'510.2
2017-Sep-04 02:00N 40°51' E 002°02'510.3
2017-Sep-04 01:30N 40°47' E 001°60'510.3
2017-Sep-04 01:00N 40°42' E 001°57'510.3
2017-Sep-04 00:30N 40°37' E 001°55'510.3
2017-Sep-04 00:00N 40°32' E 001°53'510.2
2017-Sep-03 23:30N 40°27' E 001°51'510.3
2017-Sep-03 23:00N 40°22' E 001°49'510.4
2017-Sep-03 22:30N 40°17' E 001°47'510.4
2017-Sep-03 22:00N 40°12' E 001°45'510.3
2017-Sep-03 21:30N 40°07' E 001°43'510.3
2017-Sep-03 21:00N 40°02' E 001°41'510.4
2017-Sep-03 20:30N 39°58' E 001°39'510.3
2017-Sep-03 20:00N 39°53' E 001°37'510.1
2017-Sep-03 19:30N 39°48' E 001°35'51 4.2
2017-Sep-03 07:23N 38°60' E 001°13'6 7.5
2017-Sep-03 06:32N 38°53' E 001°13'3 7.5
2017-Sep-03 06:10N 38°51' E 001°15'  
2017-Aug-31 11:32N 38°47' E 001°26'0 9.6
2017-Aug-31 11:29N 38°48' E 001°26'5 9.7
2017-Aug-31 11:00N 38°52' E 001°26'2 4.2
2017-Aug-31 10:28N 38°55' E 001°26'0 0.0
2017-Aug-31 09:58N 38°55' E 001°26'0 0.0
2017-Aug-31 09:28N 38°55' E 001°26'0 0.0
2017-Aug-31 08:58N 38°55' E 001°26'0 0.0
2017-Aug-31 08:28N 38°55' E 001°26'0 0.0
2017-Aug-31 07:58N 38°55' E 001°26'0 0.0
2017-Aug-31 07:28N 38°55' E 001°26'0 0.0
2017-Aug-31 06:58N 38°55' E 001°26'0 0.0
2017-Aug-31 06:28N 38°55' E 001°26'0 0.0
2017-Aug-31 05:58N 38°55' E 001°26'0 0.0
2017-Aug-31 05:28N 38°55' E 001°26'0 0.0
2017-Aug-31 04:58N 38°55' E 001°26'0 0.0
2017-Aug-31 04:28N 38°55' E 001°26'0 0.0
2017-Aug-31 03:58N 38°55' E 001°26'0 0.0
2017-Aug-31 03:28N 38°55' E 001°26'0 0.0
2017-Aug-31 02:58N 38°55' E 001°26'0 0.0
2017-Aug-31 02:28N 38°55' E 001°26'0 0.0
2017-Aug-31 01:58N 38°55' E 001°26'0 0.0
2017-Aug-31 01:28N 38°55' E 001°26'0 0.0
2017-Aug-31 00:58N 38°55' E 001°26'0 0.0
2017-Aug-31 00:28N 38°55' E 001°26'0 0.0
2017-Aug-30 23:58N 38°55' E 001°26'0 0.0
2017-Aug-30 23:28N 38°55' E 001°26'0 0.0
2017-Aug-30 22:58N 38°55' E 001°26'0 0.0
2017-Aug-30 22:28N 38°55' E 001°26'0 0.0
2017-Aug-30 21:58N 38°55' E 001°26'0 0.0
2017-Aug-30 21:28N 38°55' E 001°26'0 0.0
2017-Aug-30 20:31N 38°55' E 001°26'0 0.0
2017-Aug-30 20:28N 38°55' E 001°26'0 0.0
2017-Aug-30 19:58N 38°55' E 001°26'0 0.0
2017-Aug-30 19:28N 38°55' E 001°26'0 0.0
2017-Aug-30 18:58N 38°55' E 001°26'0 0.0
2017-Aug-30 18:22N 38°55' E 001°26'0 0.0
2017-Aug-30 17:58N 38°55' E 001°26'0 0.0
2017-Aug-30 17:28N 38°55' E 001°26'0 0.0
2017-Aug-30 16:58N 38°55' E 001°26'0 0.0
2017-Aug-30 16:22N 38°55' E 001°26'0 0.0
2017-Aug-30 15:58N 38°55' E 001°26'0 0.0
2017-Aug-30 15:28N 38°55' E 001°26'0 0.0
2017-Aug-30 14:58N 38°55' E 001°26'0 0.0
2017-Aug-30 14:28N 38°55' E 001°26'0 0.0
2017-Aug-30 13:58N 38°55' E 001°26'0 0.0
2017-Aug-30 13:28N 38°55' E 001°26'0 0.0
2017-Aug-30 12:58N 38°55' E 001°26'0 0.0
2017-Aug-30 12:28N 38°55' E 001°26'0 0.0
2017-Aug-30 11:58N 38°55' E 001°26'0 0.2
2017-Aug-30 11:29N 38°55' E 001°26'6 6.1
2017-Aug-30 10:26N 38°50' E 001°21'2 0.0
2017-Aug-28 14:57N 38°51' E 001°19'3 8.0
2017-Aug-28 14:31N 38°49' E 001°22'3 0.7
2017-Aug-28 09:51N 38°47' E 001°26'0 0.0
2017-Aug-28 09:27N 38°47' E 001°26'0 0.1
2017-Aug-28 08:17N 38°47' E 001°25'1 0.7
2017-Aug-28 07:16N 38°46' E 001°26'0 0.0
2017-Aug-28 06:46N 38°46' E 001°26'0 0.0
2017-Aug-28 06:22N 38°46' E 001°26'0 0.0
2017-Aug-28 05:10N 38°46' E 001°26'0 0.0
2017-Aug-27 20:52N 38°46' E 001°26'0 0.0
2017-Aug-27 20:10N 38°46' E 001°26'0 0.0
2017-Aug-27 19:04N 38°46' E 001°26'0 0.1
2017-Aug-27 18:58N 38°46' E 001°26'0 0.0
2017-Aug-27 18:28N 38°46' E 001°26'0 0.0
2017-Aug-27 17:58N 38°46' E 001°26'0 0.0
2017-Aug-27 17:30N 38°46' E 001°26'2 3.9
2017-Aug-27 17:00N 38°48' E 001°25'510.1
2017-Aug-27 16:30N 38°51' E 001°30'510.2
2017-Aug-27 16:00N 38°54' E 001°35'510.2
2017-Aug-27 15:30N 38°57' E 001°40'510.2
2017-Aug-27 15:00N 39°00' E 001°46'510.1
2017-Aug-27 14:30N 39°03' E 001°51'510.0
2017-Aug-27 14:00N 39°06' E 001°56'5 9.7
2017-Aug-27 13:30N 39°09' E 002°01'5 9.8
2017-Aug-27 13:01N 39°12' E 002°06'510.1
2017-Aug-27 12:30N 39°15' E 002°11'510.1
2017-Aug-27 12:00N 39°18' E 002°17'510.2
2017-Aug-27 11:30N 39°21' E 002°22'510.5
2017-Aug-27 11:00N 39°24' E 002°27'611.3
2017-Aug-27 10:30N 39°28' E 002°33'510.2
2017-Aug-27 10:00N 39°32' E 002°37'2 4.4
2017-Aug-27 09:31N 39°34' E 002°38'0 0.0
2017-Aug-27 08:59N 39°34' E 002°38'0 0.0
2017-Aug-27 08:29N 39°34' E 002°38'0 0.0
2017-Aug-27 07:59N 39°34' E 002°38'0 0.0
2017-Aug-27 07:29N 39°34' E 002°38'0 0.0
2017-Aug-27 06:59N 39°34' E 002°38'0 0.0
2017-Aug-27 06:29N 39°34' E 002°38'0 0.0
2017-Aug-27 05:59N 39°34' E 002°38'0 0.0
2017-Aug-27 05:29N 39°34' E 002°38'0 0.0
2017-Aug-27 04:59N 39°34' E 002°38'0 0.0
2017-Aug-27 04:29N 39°34' E 002°38'0 0.0
2017-Aug-27 03:59N 39°34' E 002°38'0 0.0
2017-Aug-27 03:29N 39°34' E 002°38'0 0.0
2017-Aug-27 02:59N 39°34' E 002°38'0 0.0
2017-Aug-27 02:29N 39°34' E 002°38'0 0.0
2017-Aug-27 01:56N 39°34' E 002°38'0 0.0
2017-Aug-27 01:29N 39°34' E 002°38'0 0.0
2017-Aug-27 00:59N 39°34' E 002°38'0 0.0
2017-Aug-27 00:29N 39°34' E 002°38'0 0.0
2017-Aug-26 23:59N 39°34' E 002°38'0 0.0
2017-Aug-26 23:29N 39°34' E 002°38'0 0.0
2017-Aug-26 22:59N 39°34' E 002°38'0 0.0
2017-Aug-26 22:29N 39°34' E 002°38'0 0.0
2017-Aug-26 21:59N 39°34' E 002°38'0 0.0
2017-Aug-26 21:29N 39°34' E 002°38'0 0.0
2017-Aug-26 20:59N 39°34' E 002°38'0 0.0
2017-Aug-26 20:29N 39°34' E 002°38'0 0.0
2017-Aug-26 19:59N 39°34' E 002°38'0 0.0
2017-Aug-26 19:29N 39°34' E 002°38'0 0.0
2017-Aug-26 18:59N 39°34' E 002°38'0 0.0
2017-Aug-26 18:29N 39°34' E 002°38'0 0.0
2017-Aug-26 17:59N 39°34' E 002°38'0 0.0
2017-Aug-26 17:26N 39°34' E 002°38'0 0.0
2017-Aug-26 16:56N 39°34' E 002°38'0 0.0
2017-Aug-26 16:29N 39°34' E 002°38'0 0.0
2017-Aug-26 15:59N 39°34' E 002°38'0 0.0
2017-Aug-26 15:29N 39°34' E 002°38'0 0.0
2017-Aug-26 14:59N 39°34' E 002°38'0 0.0
2017-Aug-26 13:59N 39°34' E 002°38'0 0.0
2017-Aug-26 13:29N 39°34' E 002°38'0 0.0
2017-Aug-26 12:59N 39°34' E 002°38'0 0.0
2017-Aug-26 12:29N 39°34' E 002°38'0 0.0
2017-Aug-26 11:56N 39°34' E 002°38'0 0.0
2017-Aug-26 11:29N 39°34' E 002°38'0 0.0
2017-Aug-26 10:59N 39°34' E 002°38'0 0.0
2017-Aug-26 10:29N 39°34' E 002°38'0 0.0
2017-Aug-26 09:56N 39°34' E 002°38'0 0.0
2017-Aug-26 09:29N 39°34' E 002°38'0 0.0
2017-Aug-26 08:59N 39°34' E 002°38'0 0.0
2017-Aug-26 08:29N 39°34' E 002°38'0 0.0
2017-Aug-26 07:59N 39°34' E 002°38'0 0.0
2017-Aug-26 07:29N 39°34' E 002°38'0 0.0
2017-Aug-26 06:59N 39°34' E 002°38'0 0.0
2017-Aug-26 06:29N 39°34' E 002°38'0 0.0
2017-Aug-26 05:56N 39°34' E 002°38'0 0.0
2017-Aug-26 05:29N 39°34' E 002°38'0 0.0
2017-Aug-26 04:59N 39°34' E 002°38'0 0.0
2017-Aug-26 04:29N 39°34' E 002°38'0 0.0
2017-Aug-26 03:59N 39°34' E 002°38'0 0.0
2017-Aug-26 03:29N 39°34' E 002°38'0 0.0
2017-Aug-26 02:59N 39°34' E 002°38'0 0.0
2017-Aug-26 02:29N 39°34' E 002°38'0 0.0
2017-Aug-26 01:59N 39°34' E 002°38'0 0.0
2017-Aug-26 01:29N 39°34' E 002°38'0 0.0
2017-Aug-26 00:59N 39°34' E 002°38'0 0.0
2017-Aug-26 00:29N 39°34' E 002°38'0 0.0
2017-Aug-25 23:59N 39°34' E 002°38'0 0.0
2017-Aug-25 23:29N 39°34' E 002°38'0 0.0
2017-Aug-25 22:59N 39°34' E 002°38'0 0.0
2017-Aug-25 22:29N 39°34' E 002°38'0 0.0
2017-Aug-25 21:59N 39°34' E 002°38'0 0.0
2017-Aug-25 21:29N 39°34' E 002°38'0 0.0
2017-Aug-25 20:59N 39°34' E 002°38'0 0.0
2017-Aug-25 20:29N 39°34' E 002°38'0 0.0
2017-Aug-25 19:59N 39°34' E 002°38'0 0.0
2017-Aug-25 19:29N 39°34' E 002°38'0 0.0
2017-Aug-25 18:59N 39°34' E 002°38'0 0.0
2017-Aug-25 18:30N 39°34' E 002°38'1 1.3
2017-Aug-25 18:01N 39°33' E 002°38'4 7.8
2017-Aug-25 17:30N 39°30' E 002°36'5 9.9
2017-Aug-25 17:00N 39°27' E 002°30'611.0
2017-Aug-25 16:30N 39°31' E 002°25'1 0.2
2017-Aug-25 09:18N 39°32' E 002°25'2 6.2
2017-Aug-25 09:00N 39°30' E 002°26'  

Dump ship's entire track history